Time;durP1;ratioP1;P1;durP2;ratioP2;P2;SDS_P1;SDS_P2;PMS_P1;PMS_P2;Temp;Humidity;BMP_temperature;BMP_pressure;BME280_temperature;BME280_humidity;BME280_pressure;Samples;Min_cycle;Max_cycle;Signal;HPM_P1;HPM_P2
2023/02/01 00:02:12;;;;;;;65.80;6.97;;;;;;;;;;5074291;28;20205;-67
2023/02/01 00:04:40;;;;;;;61.25;5.88;;;;;;;;;;5074128;28;20233;-68
2023/02/01 00:07:07;;;;;;;60.97;5.05;;;;;;;;;;5073927;28;20709;-68
2023/02/01 00:09:34;;;;;;;61.72;6.13;;;;;;;;;;5073187;28;20723;-68
2023/02/01 00:12:03;;;;;;;60.65;5.72;;;;;;;;;;5074343;28;20205;-68
2023/02/01 00:14:32;;;;;;;61.97;6.60;;;;;;;;;;5073672;28;20236;-68
2023/02/01 00:16:59;;;;;;;61.17;5.70;;;;;;;;;;5073693;28;20693;-69
2023/02/01 00:19:26;;;;;;;60.80;5.40;;;;;;;;;;5073144;28;20204;-67
2023/02/01 00:21:53;;;;;;;60.97;5.90;;;;;;;;;;5073659;28;20208;-68
2023/02/01 00:24:20;;;;;;;60.15;5.47;;;;;;;;;;5073628;28;20502;-67
2023/02/01 00:26:48;;;;;;;58.75;4.60;;;;;;;;;;5073534;28;20215;-68
2023/02/01 00:29:17;;;;;;;60.88;4.90;;;;;;;;;;5072679;28;20251;-68
2023/02/01 00:31:44;;;;;;;61.28;5.00;;;;;;;;;;5073468;28;20649;-68
2023/02/01 00:34:13;;;;;;;60.58;5.28;;;;;;;;;;5073528;28;20225;-68
2023/02/01 00:36:41;;;;;;;60.47;5.43;;;;;;;;;;5073658;28;20484;-68
2023/02/01 00:39:08;;;;;;;60.47;5.32;;;;;;;;;;5072836;28;20209;-68
2023/02/01 00:41:35;;;;;;;60.20;4.90;;;;;;;;;;5073419;28;20209;-67
2023/02/01 00:44:02;;;;;;;59.13;5.13;;;;;;;;;;5073102;28;20229;-68
2023/02/01 00:46:31;;;;;;;59.83;4.70;;;;;;;;;;5073561;28;20215;-67
2023/02/01 00:48:58;;;;;;;59.45;5.00;;;;;;;;;;5072636;28;20227;-68
2023/02/01 00:51:26;;;;;;;59.53;4.60;;;;;;;;;;5073231;28;20209;-68
2023/02/01 00:53:53;;;;;;;60.90;5.40;;;;;;;;;;5073075;28;20225;-67
2023/02/01 00:56:21;;;;;;;59.53;4.95;;;;;;;;;;5073052;28;20263;-68
2023/02/01 00:58:48;;;;;;;58.80;4.07;;;;;;;;;;5072334;28;20209;-68
2023/02/01 01:01:16;;;;;;;60.58;5.05;;;;;;;;;;5073152;28;20205;-67
2023/02/01 01:03:46;;;;;;;59.85;4.57;;;;;;;;;;5072909;28;20222;-67
2023/02/01 01:06:14;;;;;;;58.90;4.55;;;;;;;;;;5072917;28;20569;-68
2023/02/01 01:08:41;;;;;;;62.15;4.47;;;;;;;;;;5071107;28;20407;-68
2023/02/01 01:11:10;;;;;;;59.08;4.32;;;;;;;;;;5073046;28;20209;-68
2023/02/01 01:13:37;;;;;;;58.88;4.07;;;;;;;;;;5072746;28;20231;-68
2023/02/01 01:16:05;;;;;;;58.88;4.20;;;;;;;;;;5072943;28;20220;-67
2023/02/01 01:18:33;;;;;;;58.58;4.40;;;;;;;;;;5072165;28;20220;-68
2023/02/01 01:21:02;;;;;;;60.45;4.53;;;;;;;;;;5072667;28;20205;-68
2023/02/01 01:23:29;;;;;;;59.58;5.00;;;;;;;;;;5072360;28;20225;-68
2023/02/01 01:25:56;;;;;;;58.67;4.13;;;;;;;;;;5073082;28;20209;-67
2023/02/01 01:28:23;;;;;;;60.75;4.40;;;;;;;;;;5071920;28;20228;-67
2023/02/01 01:30:50;;;;;;;59.50;4.60;;;;;;;;;;5071879;28;20204;-67
2023/02/01 01:33:17;;;;;;;59.15;4.80;;;;;;;;;;5072138;28;20229;-68
2023/02/01 01:35:45;;;;;;;59.60;5.05;;;;;;;;;;5072235;28;20201;-67
2023/02/01 01:38:13;;;;;;;59.30;4.75;;;;;;;;;;5072120;28;20207;-68
2023/02/01 01:40:40;;;;;;;59.13;4.43;;;;;;;;;;5071635;28;20207;-68
2023/02/01 01:43:13;;;;;;;58.88;4.25;;;;;;;;;;5072156;28;20591;-68
2023/02/01 01:45:41;;;;;;;59.17;4.45;;;;;;;;;;5072206;28;20215;-68
2023/02/01 01:48:10;;;;;;;58.67;4.00;;;;;;;;;;5071964;28;20225;-68
2023/02/01 01:50:37;;;;;;;58.10;3.50;;;;;;;;;;5071277;28;20216;-68
2023/02/01 01:53:06;;;;;;;59.35;4.13;;;;;;;;;;5072119;28;20608;-68
2023/02/01 01:55:37;;;;;;;58.45;4.05;;;;;;;;;;5072090;28;20201;-67
2023/02/01 01:58:06;;;;;;;59.20;3.72;;;;;;;;;;5072109;28;20212;-68
2023/02/01 02:00:34;;;;;;;58.20;3.63;;;;;;;;;;5071298;28;20209;-68
2023/02/01 02:03:04;;;;;;;59.00;3.97;;;;;;;;;;5071737;28;20229;-67
2023/02/01 02:05:31;;;;;;;58.70;3.90;;;;;;;;;;5071877;28;20209;-68
2023/02/01 02:08:00;;;;;;;59.42;4.60;;;;;;;;;;5071876;28;20224;-68
2023/02/01 02:10:59;;;;;;;58.40;3.78;;;;;;;;;;5070992;28;20240;-68
2023/02/01 02:13:17;;;;;;;59.85;4.63;;;;;;;;;;5072004;28;20287;-68
2023/02/01 02:15:47;;;;;;;58.20;3.97;;;;;;;;;;5072023;28;20201;-68
2023/02/01 02:18:17;;;;;;;58.15;4.40;;;;;;;;;;5071816;28;20207;-67
2023/02/01 02:20:54;;;;;;;58.90;4.13;;;;;;;;;;5070862;28;20696;-68
2023/02/01 02:23:45;;;;;;;58.17;3.83;;;;;;;;;;5071579;28;20471;-68
2023/02/01 02:26:25;;;;;;;59.30;4.18;;;;;;;;;;5071922;28;20211;-67
2023/02/01 02:29:03;;;;;;;59.15;4.40;;;;;;;;;;5070941;28;20225;-68
2023/02/01 02:31:42;;;;;;;59.00;4.28;;;;;;;;;;5071688;28;20557;-68
2023/02/01 02:34:14;;;;;;;59.05;4.30;;;;;;;;;;5071922;28;20228;-68
2023/02/01 02:36:45;;;;;;;59.90;4.70;;;;;;;;;;5071813;28;20241;-68
2023/02/01 02:39:18;;;;;;;59.00;4.07;;;;;;;;;;5070913;28;20197;-68
2023/02/01 02:47:27;;;;;;;58.17;4.35;;;;;;;;;;5067844;28;20196;-68
2023/02/01 02:55:35;;;;;;;58.70;4.15;;;;;;;;;;5071386;28;20315;-67
2023/02/01 03:06:24;;;;;;;59.50;4.85;;;;;;;;;;5071323;28;20247;-67
2023/02/01 03:08:53;;;;;;;63.30;5.07;;;;;;;;;;5070252;28;20232;-68
2023/02/01 03:11:22;;;;;;;59.33;4.70;;;;;;;;;;5071455;28;20209;-67
2023/02/01 03:13:51;;;;;;;59.15;4.10;;;;;;;;;;5071098;28;20229;-68
2023/02/01 03:16:25;;;;;;;58.77;4.33;;;;;;;;;;5071082;28;20212;-68
2023/02/01 03:18:55;;;;;;;59.17;4.38;;;;;;;;;;5070424;28;20454;-67
2023/02/01 03:21:26;;;;;;;58.70;4.00;;;;;;;;;;5071058;28;20212;-67
2023/02/01 03:23:54;;;;;;;59.45;5.05;;;;;;;;;;5071272;28;20233;-68
2023/02/01 03:26:23;;;;;;;59.33;4.50;;;;;;;;;;5071056;28;20212;-67
2023/02/01 03:28:53;;;;;;;58.67;4.50;;;;;;;;;;5070143;28;20697;-68
2023/02/01 03:31:20;;;;;;;59.03;4.85;;;;;;;;;;5071156;28;20206;-68
2023/02/01 03:33:48;;;;;;;59.60;4.90;;;;;;;;;;5074435;28;20229;-68
2023/02/01 03:36:17;;;;;;;59.30;4.45;;;;;;;;;;5074810;28;20201;-68
2023/02/01 03:38:49;;;;;;;59.47;4.85;;;;;;;;;;5073868;28;20676;-68
2023/02/01 03:41:19;;;;;;;60.13;5.10;;;;;;;;;;5074480;28;20666;-68
2023/02/01 03:43:51;;;;;;;59.38;5.03;;;;;;;;;;5074486;28;20594;-68
2023/02/01 03:46:22;;;;;;;59.95;5.30;;;;;;;;;;5074294;28;20673;-68
2023/02/01 03:48:49;;;;;;;61.85;5.03;;;;;;;;;;5073769;28;20239;-68
2023/02/01 03:51:17;;;;;;;59.60;5.13;;;;;;;;;;5074128;28;20201;-68
2023/02/01 03:53:47;;;;;;;61.03;4.70;;;;;;;;;;5074074;28;20228;-67
2023/02/01 03:56:16;;;;;;;59.78;5.03;;;;;;;;;;5074124;28;20209;-67
2023/02/01 03:58:57;;;;;;;59.72;4.70;;;;;;;;;;5073365;28;20201;-68
2023/02/01 04:01:24;;;;;;;62.75;4.95;;;;;;;;;;5074394;28;20215;-67
2023/02/01 04:03:52;;;;;;;59.03;4.75;;;;;;;;;;5074201;28;20240;-68
2023/02/01 04:06:19;;;;;;;62.05;4.93;;;;;;;;;;5074066;28;20209;-68
2023/02/01 04:08:46;;;;;;;59.50;4.63;;;;;;;;;;5073113;28;20838;-68
2023/02/01 04:11:13;;;;;;;60.03;5.88;;;;;;;;;;5073844;28;20205;-68
2023/02/01 04:13:41;;;;;;;59.20;4.78;;;;;;;;;;5074150;28;20221;-69
2023/02/01 04:16:08;;;;;;;58.70;4.65;;;;;;;;;;5073810;28;20270;-68
2023/02/01 04:18:35;;;;;;;59.88;5.05;;;;;;;;;;5073147;28;20223;-68
2023/02/01 04:21:03;;;;;;;59.35;4.95;;;;;;;;;;5073838;28;20211;-68
2023/02/01 04:23:31;;;;;;;59.42;4.85;;;;;;;;;;5073592;28;20243;-68
2023/02/01 04:26:00;;;;;;;59.13;4.63;;;;;;;;;;5073606;28;20264;-68
2023/02/01 04:28:27;;;;;;;59.60;5.20;;;;;;;;;;5073427;28;20225;-68
2023/02/01 04:30:55;;;;;;;59.67;4.75;;;;;;;;;;5073393;28;20212;-68
2023/02/01 04:33:22;;;;;;;60.13;5.45;;;;;;;;;;5073523;28;20597;-68
2023/02/01 04:35:50;;;;;;;58.67;4.20;;;;;;;;;;5073968;28;20201;-67
2023/02/01 04:38:17;;;;;;;59.15;4.32;;;;;;;;;;5073287;28;20197;-68
2023/02/01 04:40:44;;;;;;;59.78;4.93;;;;;;;;;;5072971;28;20205;-68
2023/02/01 04:43:11;;;;;;;59.33;4.53;;;;;;;;;;5073251;28;20682;-68
2023/02/01 04:45:38;;;;;;;59.67;5.60;;;;;;;;;;5073442;28;20201;-68
2023/02/01 04:48:07;;;;;;;59.70;5.35;;;;;;;;;;5073192;28;20208;-68
2023/02/01 04:50:34;;;;;;;59.38;5.03;;;;;;;;;;5072787;28;20205;-68
2023/02/01 04:53:01;;;;;;;59.17;4.72;;;;;;;;;;5073074;28;20233;-67
2023/02/01 04:55:28;;;;;;;62.13;4.78;;;;;;;;;;5073245;28;20631;-68
2023/02/01 04:57:56;;;;;;;59.28;5.00;;;;;;;;;;5073126;28;20209;-67
2023/02/01 05:00:24;;;;;;;60.55;4.80;;;;;;;;;;5072554;28;20205;-68
2023/02/01 05:02:51;;;;;;;59.17;4.50;;;;;;;;;;5073059;28;20233;-68
2023/02/01 05:05:20;;;;;;;59.10;4.70;;;;;;;;;;5073059;28;20204;-68
2023/02/01 05:07:47;;;;;;;60.35;4.95;;;;;;;;;;5073019;28;20212;-68
2023/02/01 05:10:14;;;;;;;64.60;5.68;;;;;;;;;;5072303;28;20270;-68
2023/02/01 05:15:26;;;;;;;59.35;5.00;;;;;;;;;;5072931;28;20250;-68
2023/02/01 05:17:53;;;;;;;61.03;5.45;;;;;;;;;;5072513;28;20296;-68
2023/02/01 05:20:21;;;;;;;60.45;5.32;;;;;;;;;;5072086;28;20197;-67
2023/02/01 05:22:49;;;;;;;59.05;4.20;;;;;;;;;;5072668;28;20220;-67
2023/02/01 05:25:16;;;;;;;58.72;4.20;;;;;;;;;;5072466;28;20217;-68
2023/02/01 05:27:43;;;;;;;59.50;4.72;;;;;;;;;;5072816;28;20209;-68
2023/02/01 05:30:11;;;;;;;59.55;4.97;;;;;;;;;;5071574;28;20229;-67
2023/02/01 05:32:38;;;;;;;59.10;4.47;;;;;;;;;;5072359;28;20227;-68
2023/02/01 05:35:05;;;;;;;59.42;4.80;;;;;;;;;;5072589;28;20224;-68
2023/02/01 05:37:34;;;;;;;59.58;4.55;;;;;;;;;;5072485;28;20202;-68
2023/02/01 05:40:01;;;;;;;59.20;4.82;;;;;;;;;;5071634;28;20197;-68
2023/02/01 05:42:28;;;;;;;58.90;4.53;;;;;;;;;;5072333;28;20204;-68
2023/02/01 05:44:55;;;;;;;59.97;4.65;;;;;;;;;;5072099;28;20601;-68
2023/02/01 05:47:22;;;;;;;59.60;4.97;;;;;;;;;;5072293;28;20213;-68
2023/02/01 05:49:49;;;;;;;59.40;4.35;;;;;;;;;;5071121;28;20225;-67
2023/02/01 05:52:19;;;;;;;58.95;4.80;;;;;;;;;;5072104;28;20561;-68
2023/02/01 05:54:47;;;;;;;59.83;4.57;;;;;;;;;;5071566;28;20232;-68
2023/02/01 05:57:14;;;;;;;59.78;4.80;;;;;;;;;;5072113;28;20212;-68
2023/02/01 05:59:44;;;;;;;59.28;4.20;;;;;;;;;;5071115;28;20673;-68
2023/02/01 06:02:11;;;;;;;58.95;4.35;;;;;;;;;;5071979;28;20212;-67
2023/02/01 06:04:38;;;;;;;59.45;4.82;;;;;;;;;;5071912;28;20232;-67
2023/02/01 06:07:07;;;;;;;59.05;4.10;;;;;;;;;;5071921;28;20205;-68
2023/02/01 06:09:34;;;;;;;59.65;4.47;;;;;;;;;;5071078;28;20289;-69
2023/02/01 06:12:03;;;;;;;60.25;5.00;;;;;;;;;;5071714;28;20205;-67
2023/02/01 06:14:30;;;;;;;59.45;4.50;;;;;;;;;;5071866;28;20225;-67
2023/02/01 06:16:57;;;;;;;58.50;4.25;;;;;;;;;;5071880;28;20215;-69
2023/02/01 06:19:24;;;;;;;58.78;4.25;;;;;;;;;;5071067;28;20197;-69
2023/02/01 06:21:51;;;;;;;60.05;4.25;;;;;;;;;;5071844;28;20610;-69
2023/02/01 06:24:18;;;;;;;58.25;4.25;;;;;;;;;;5071676;28;20350;-69
2023/02/01 06:26:45;;;;;;;58.97;4.20;;;;;;;;;;5071819;28;20677;-69
2023/02/01 06:29:14;;;;;;;58.10;3.83;;;;;;;;;;5071181;28;20487;-68
2023/02/01 06:31:42;;;;;;;58.80;4.20;;;;;;;;;;5071903;28;20579;-69
2023/02/01 06:34:09;;;;;;;59.57;4.63;;;;;;;;;;5071526;28;20316;-68
2023/02/01 06:36:36;;;;;;;58.78;4.05;;;;;;;;;;5071524;28;20936;-68
2023/02/01 06:39:04;;;;;;;59.90;4.18;;;;;;;;;;5070747;28;20201;-69
2023/02/01 06:41:31;;;;;;;59.60;4.10;;;;;;;;;;5072094;28;20221;-68
2023/02/01 06:43:58;;;;;;;60.45;4.05;;;;;;;;;;5071665;28;20626;-68
2023/02/01 06:46:26;;;;;;;59.17;4.23;;;;;;;;;;5071662;28;20211;-69
2023/02/01 06:48:54;;;;;;;59.22;4.40;;;;;;;;;;5070766;28;20929;-69
2023/02/01 06:51:22;;;;;;;59.72;3.92;;;;;;;;;;5071548;28;20205;-68
2023/02/01 06:53:49;;;;;;;59.22;3.97;;;;;;;;;;5071447;28;20235;-69
2023/02/01 06:56:16;;;;;;;59.55;3.97;;;;;;;;;;5071836;28;20252;-69
2023/02/01 06:58:43;;;;;;;60.13;4.32;;;;;;;;;;5070770;28;20205;-69
2023/02/01 07:01:11;;;;;;;61.50;4.60;;;;;;;;;;5071537;28;20459;-69
2023/02/01 07:03:39;;;;;;;61.75;4.28;;;;;;;;;;5071236;28;20243;-69
2023/02/01 07:06:07;;;;;;;59.65;4.63;;;;;;;;;;5071298;28;20685;-68
2023/02/01 07:08:35;;;;;;;58.90;4.67;;;;;;;;;;5074103;28;20213;-68
2023/02/01 07:11:03;;;;;;;59.47;4.67;;;;;;;;;;5074992;28;20466;-68
2023/02/01 07:13:30;;;;;;;60.80;4.65;;;;;;;;;;5075159;28;20474;-68
2023/02/01 07:15:59;;;;;;;61.28;4.47;;;;;;;;;;5075167;28;20202;-67
2023/02/01 07:18:26;;;;;;;58.47;4.20;;;;;;;;;;5074991;28;20227;-68
2023/02/01 07:20:54;;;;;;;59.10;4.87;;;;;;;;;;5074935;28;20447;-69
2023/02/01 07:23:21;;;;;;;59.65;4.60;;;;;;;;;;5074834;28;20470;-68
2023/02/01 07:25:49;;;;;;;59.72;4.50;;;;;;;;;;5075085;28;20212;-69
2023/02/01 07:28:16;;;;;;;60.42;4.60;;;;;;;;;;5074774;28;20201;-69
2023/02/01 07:30:43;;;;;;;60.30;4.95;;;;;;;;;;5074088;28;20229;-69
2023/02/01 07:33:10;;;;;;;60.60;5.17;;;;;;;;;;5074518;28;20225;-69
2023/02/01 07:35:37;;;;;;;60.50;4.67;;;;;;;;;;5074605;28;20454;-68
2023/02/01 07:38:06;;;;;;;61.40;5.43;;;;;;;;;;5074760;28;20839;-69
2023/02/01 07:40:33;;;;;;;59.95;5.00;;;;;;;;;;5073963;28;20439;-69
2023/02/01 07:43:00;;;;;;;60.63;6.00;;;;;;;;;;5074560;28;20301;-69
2023/02/01 07:45:27;;;;;;;58.43;4.47;;;;;;;;;;5074605;28;20451;-69
2023/02/01 07:47:54;;;;;;;61.07;4.87;;;;;;;;;;5074300;28;20470;-69
2023/02/01 07:50:22;;;;;;;62.33;5.93;;;;;;;;;;5073904;28;20515;-68
2023/02/01 07:52:49;;;;;;;61.55;4.78;;;;;;;;;;5074212;28;20455;-69
2023/02/01 07:55:17;;;;;;;60.23;5.13;;;;;;;;;;5074497;28;20205;-68
2023/02/01 07:57:44;;;;;;;61.60;4.55;;;;;;;;;;5074402;28;20451;-69
2023/02/01 08:02:59;;;;;;;60.97;4.50;;;;;;;;;;5073981;28;20220;-68
2023/02/01 08:05:26;;;;;;;60.00;4.82;;;;;;;;;;5074367;28;20453;-68
2023/02/01 08:07:53;;;;;;;61.22;4.68;;;;;;;;;;5074162;28;20574;-68
2023/02/01 08:10:21;;;;;;;61.27;5.53;;;;;;;;;;5073425;28;20361;-69
2023/02/01 08:12:49;;;;;;;70.82;5.63;;;;;;;;;;5073749;28;20578;-68
2023/02/01 08:15:16;;;;;;;59.92;4.70;;;;;;;;;;5074078;28;20215;-69
2023/02/01 08:17:47;;;;;;;60.77;5.00;;;;;;;;;;5073607;28;20205;-68
2023/02/01 08:20:15;;;;;;;63.95;5.10;;;;;;;;;;5073108;28;20454;-68
2023/02/01 08:22:42;;;;;;;61.73;5.57;;;;;;;;;;5073882;28;20304;-68
2023/02/01 08:25:10;;;;;;;62.47;5.23;;;;;;;;;;5073557;28;20981;-68
2023/02/01 08:27:38;;;;;;;61.67;5.37;;;;;;;;;;5073534;28;20451;-67
2023/02/01 08:30:06;;;;;;;65.03;5.40;;;;;;;;;;5072782;28;20483;-68
2023/02/01 08:32:34;;;;;;;61.73;4.83;;;;;;;;;;5073611;28;20477;-69
2023/02/01 08:35:02;;;;;;;61.67;4.40;;;;;;;;;;5073882;28;20561;-68
2023/02/01 08:37:29;;;;;;;61.40;5.15;;;;;;;;;;5073490;28;20443;-68
2023/02/01 08:39:56;;;;;;;63.20;5.63;;;;;;;;;;5072535;28;20640;-68
2023/02/01 08:45:10;;;;;;;64.40;5.43;;;;;;;;;;5073611;28;20419;-69
2023/02/01 08:47:37;;;;;;;63.27;5.57;;;;;;;;;;5073171;28;20459;-68
2023/02/01 08:50:04;;;;;;;63.17;5.13;;;;;;;;;;5072411;28;20483;-68
2023/02/01 08:52:31;;;;;;;63.77;5.13;;;;;;;;;;5072698;28;20458;-68
2023/02/01 08:54:59;;;;;;;61.47;4.90;;;;;;;;;;5073244;28;20485;-68
2023/02/01 08:57:26;;;;;;;63.57;5.10;;;;;;;;;;5073365;28;20455;-68
2023/02/01 08:59:53;;;;;;;62.83;5.67;;;;;;;;;;5072477;28;20449;-68
2023/02/01 09:02:21;;;;;;;62.50;4.43;;;;;;;;;;5073031;28;20447;-68
2023/02/01 09:04:48;;;;;;;65.63;6.40;;;;;;;;;;5072933;28;20554;-68
2023/02/01 09:07:16;;;;;;;63.90;5.10;;;;;;;;;;5073137;28;20473;-69
2023/02/01 09:09:43;;;;;;;65.10;5.27;;;;;;;;;;5072118;28;20475;-69
2023/02/01 09:12:11;;;;;;;64.07;4.60;;;;;;;;;;5072884;28;20447;-68
2023/02/01 09:14:38;;;;;;;62.97;5.40;;;;;;;;;;5072813;28;20467;-68
2023/02/01 09:17:05;;;;;;;65.00;4.57;;;;;;;;;;5073002;28;20474;-68
2023/02/01 09:19:34;;;;;;;68.43;5.33;;;;;;;;;;5071805;28;20861;-68
2023/02/01 09:22:01;;;;;;;64.13;4.77;;;;;;;;;;5072842;28;20443;-69
2023/02/01 09:24:28;;;;;;;62.33;4.87;;;;;;;;;;5072473;28;20475;-68
2023/02/01 09:26:55;;;;;;;65.33;4.90;;;;;;;;;;5072555;28;20542;-68
2023/02/01 09:29:22;;;;;;;71.73;5.00;;;;;;;;;;5071025;28;20821;-68
2023/02/01 09:31:49;;;;;;;64.90;4.80;;;;;;;;;;5072375;28;20534;-68
2023/02/01 09:34:16;;;;;;;61.95;5.22;;;;;;;;;;5072211;28;20477;-68
2023/02/01 09:36:45;;;;;;;71.60;5.83;;;;;;;;;;5072477;28;20205;-69
2023/02/01 09:39:12;;;;;;;69.57;5.57;;;;;;;;;;5071578;28;20451;-68
2023/02/01 09:41:47;;;;;;;63.00;5.97;;;;;;;;;;5072276;28;20444;-68
2023/02/01 09:44:21;;;;;;;64.17;5.17;;;;;;;;;;5072184;28;20471;-69
2023/02/01 09:46:51;;;;;;;65.50;4.80;;;;;;;;;;5072025;28;20442;-68
2023/02/01 09:49:21;;;;;;;62.60;5.13;;;;;;;;;;5071298;28;20562;-68
2023/02/01 09:51:51;;;;;;;71.87;5.97;;;;;;;;;;5072392;28;20443;-69
2023/02/01 09:54:20;;;;;;;63.00;4.67;;;;;;;;;;5072222;28;20459;-68
2023/02/01 09:56:49;;;;;;;65.87;5.40;;;;;;;;;;5071986;28;20448;-68
2023/02/01 09:59:22;;;;;;;61.60;4.93;;;;;;;;;;5071094;28;20447;-68
2023/02/01 10:01:49;;;;;;;64.17;4.93;;;;;;;;;;5072278;28;20447;-68
2023/02/01 10:04:17;;;;;;;64.90;5.03;;;;;;;;;;5071876;28;20466;-68
2023/02/01 10:06:49;;;;;;;61.60;4.80;;;;;;;;;;5071798;28;20470;-68
2023/02/01 10:09:31;;;;;;;68.03;4.80;;;;;;;;;;5071110;28;20443;-68
2023/02/01 10:12:15;;;;;;;65.03;5.43;;;;;;;;;;5072046;28;20824;-68
2023/02/01 10:14:48;;;;;;;71.90;5.40;;;;;;;;;;5040962;28;20468;-68
2023/02/01 10:17:20;;;;;;;66.93;5.00;;;;;;;;;;5071914;28;20443;-68
2023/02/01 10:19:51;;;;;;;62.20;4.90;;;;;;;;;;5071038;28;20447;-68
2023/02/01 10:22:24;;;;;;;62.97;4.70;;;;;;;;;;5071587;28;20961;-68
2023/02/01 10:24:57;;;;;;;65.77;4.80;;;;;;;;;;5071676;28;20478;-68
2023/02/01 10:27:25;;;;;;;62.10;4.20;;;;;;;;;;5071795;28;20447;-69
2023/02/01 10:29:55;;;;;;;63.67;5.10;;;;;;;;;;5069938;28;20442;-68
2023/02/01 10:32:24;;;;;;;64.40;4.90;;;;;;;;;;5068895;28;20443;-67
2023/02/01 10:34:53;;;;;;;64.73;4.63;;;;;;;;;;5071433;28;20470;-69
2023/02/01 10:37:29;;;;;;;64.80;4.83;;;;;;;;;;5071383;28;20436;-68
2023/02/01 10:39:59;;;;;;;62.90;4.80;;;;;;;;;;5070967;28;20493;-69
2023/02/01 10:42:27;;;;;;;65.80;4.97;;;;;;;;;;5075315;28;20884;-69
2023/02/01 10:44:56;;;;;;;66.03;5.13;;;;;;;;;;5075436;28;20847;-68
2023/02/01 10:47:23;;;;;;;66.47;5.30;;;;;;;;;;5075733;28;20453;-68
2023/02/01 10:49:53;;;;;;;65.73;5.13;;;;;;;;;;5074637;28;20443;-68
2023/02/01 10:52:22;;;;;;;62.43;4.53;;;;;;;;;;5075538;28;20451;-69
2023/02/01 10:54:49;;;;;;;64.30;4.57;;;;;;;;;;5075314;28;20554;-68
2023/02/01 10:57:24;;;;;;;65.57;5.37;;;;;;;;;;5075430;28;20454;-69
2023/02/01 10:59:51;;;;;;;65.47;4.73;;;;;;;;;;5074447;28;20484;-68
2023/02/01 11:02:22;;;;;;;67.70;5.03;;;;;;;;;;5075115;28;20438;-68
2023/02/01 11:04:49;;;;;;;64.80;4.67;;;;;;;;;;5075455;28;20225;-69
2023/02/01 11:07:18;;;;;;;64.70;4.90;;;;;;;;;;5075224;28;20462;-69
2023/02/01 11:09:50;;;;;;;67.67;4.30;;;;;;;;;;5074818;28;20869;-69
2023/02/01 11:12:38;;;;;;;68.63;3.93;;;;;;;;;;5075001;28;20442;-69
2023/02/01 11:15:16;;;;;;;65.30;4.40;;;;;;;;;;5070022;28;20479;-69
2023/02/01 11:17:44;;;;;;;62.30;4.87;;;;;;;;;;5075081;28;20473;-69
2023/02/01 11:20:15;;;;;;;65.37;5.30;;;;;;;;;;5074147;28;20490;-69
2023/02/01 11:22:47;;;;;;;64.27;5.07;;;;;;;;;;5074708;28;20542;-68
2023/02/01 11:25:15;;;;;;;66.47;4.93;;;;;;;;;;5074904;28;20459;-68
2023/02/01 11:27:43;;;;;;;70.30;4.63;;;;;;;;;;5074823;28;20443;-68
2023/02/01 11:30:16;;;;;;;66.47;5.10;;;;;;;;;;5074003;28;20443;-68
2023/02/01 11:32:44;;;;;;;61.70;5.63;;;;;;;;;;5074829;28;20450;-68
2023/02/01 11:35:15;;;;;;;67.50;5.27;;;;;;;;;;5074884;28;20444;-68
2023/02/01 11:37:43;;;;;;;71.47;4.97;;;;;;;;;;5074665;28;20669;-68
2023/02/01 11:40:24;;;;;;;68.63;5.10;;;;;;;;;;5073839;28;20479;-67
2023/02/01 11:42:55;;;;;;;68.40;5.03;;;;;;;;;;5074553;28;20443;-68
2023/02/01 11:45:26;;;;;;;67.47;4.83;;;;;;;;;;5074596;28;20532;-67
2023/02/01 11:47:55;;;;;;;65.47;4.90;;;;;;;;;;5074776;28;20453;-68
2023/02/01 11:50:27;;;;;;;67.60;5.30;;;;;;;;;;5073925;28;20894;-68
2023/02/01 11:53:02;;;;;;;70.57;5.20;;;;;;;;;;5073661;28;20455;-69
2023/02/01 11:55:53;;;;;;;64.47;5.23;;;;;;;;;;5074263;28;20932;-68
2023/02/01 11:58:25;;;;;;;64.97;5.40;;;;;;;;;;5058949;28;20452;-69
2023/02/01 12:00:59;;;;;;;69.10;4.97;;;;;;;;;;5073639;28;20450;-67
2023/02/01 12:03:38;;;;;;;62.03;4.47;;;;;;;;;;5074217;28;20809;-68
2023/02/01 12:06:10;;;;;;;65.13;4.13;;;;;;;;;;5074116;28;20443;-68
2023/02/01 12:08:50;;;;;;;63.63;4.50;;;;;;;;;;5073239;28;20458;-68
2023/02/01 12:11:22;;;;;;;63.67;4.70;;;;;;;;;;5073963;28;20483;-68
2023/02/01 12:13:56;;;;;;;67.80;5.60;;;;;;;;;;5074039;28;20555;-68
2023/02/01 12:16:30;;;;;;;88.03;5.80;;;;;;;;;;5074134;28;21029;-68
2023/02/01 12:19:18;;;;;;;67.53;4.90;;;;;;;;;;5073121;28;20451;-69
2023/02/01 12:22:03;;;;;;;69.70;4.93;;;;;;;;;;5048394;28;20458;-68
2023/02/01 12:24:41;;;;;;;62.23;3.60;;;;;;;;;;5063434;28;20483;-69
2023/02/01 12:27:18;;;;;;;62.03;3.80;;;;;;;;;;5073346;28;20447;-68
2023/02/01 12:29:59;;;;;;;61.67;4.30;;;;;;;;;;5073009;28;20894;-68
2023/02/01 12:32:33;;;;;;;62.73;4.03;;;;;;;;;;5069576;28;20490;-67
2023/02/01 12:35:14;;;;;;;63.17;4.50;;;;;;;;;;5073133;28;20467;-67
2023/02/01 12:37:54;;;;;;;62.43;4.20;;;;;;;;;;5073298;28;20451;-69
2023/02/01 12:40:28;;;;;;;64.40;4.00;;;;;;;;;;5072919;28;20454;-68
2023/02/01 12:42:59;;;;;;;61.40;4.30;;;;;;;;;;5073564;28;20451;-68
2023/02/01 12:45:29;;;;;;;67.87;4.90;;;;;;;;;;5073385;28;20545;-67
2023/02/01 12:47:58;;;;;;;68.00;4.00;;;;;;;;;;5073141;28;20443;-68
2023/02/01 12:50:28;;;;;;;68.27;4.53;;;;;;;;;;5072746;28;20470;-68
2023/02/01 12:52:56;;;;;;;65.17;4.20;;;;;;;;;;5073253;28;20447;-68
2023/02/01 12:55:26;;;;;;;60.93;3.90;;;;;;;;;;5073161;28;20455;-69
2023/02/01 12:57:56;;;;;;;63.53;3.83;;;;;;;;;;5073076;28;20448;-69
2023/02/01 13:00:27;;;;;;;65.53;4.20;;;;;;;;;;5072367;28;20961;-68
2023/02/01 13:02:59;;;;;;;67.63;4.47;;;;;;;;;;5073328;28;20448;-67
2023/02/01 13:05:29;;;;;;;63.73;4.33;;;;;;;;;;5072035;28;20462;-67
2023/02/01 13:07:59;;;;;;;67.60;4.13;;;;;;;;;;5073162;28;20459;-68
2023/02/01 13:10:31;;;;;;;65.80;5.33;;;;;;;;;;5072339;28;20454;-67
2023/02/01 13:13:00;;;;;;;63.93;4.20;;;;;;;;;;5072824;28;20532;-68
2023/02/01 13:15:29;;;;;;;66.90;4.50;;;;;;;;;;5072979;28;20824;-68
2023/02/01 13:18:00;;;;;;;66.40;4.37;;;;;;;;;;5072766;28;20453;-68
2023/02/01 13:20:29;;;;;;;61.00;4.23;;;;;;;;;;5072128;28;20447;-67
2023/02/01 13:23:02;;;;;;;62.17;4.80;;;;;;;;;;5072424;28;20455;-68
2023/02/01 13:25:35;;;;;;;64.37;4.43;;;;;;;;;;5072317;28;20980;-68
2023/02/01 13:28:04;;;;;;;67.60;4.20;;;;;;;;;;5072468;28;21039;-68
2023/02/01 13:30:36;;;;;;;75.53;5.10;;;;;;;;;;5071937;28;20458;-68
2023/02/01 13:33:18;;;;;;;63.63;4.80;;;;;;;;;;5072201;28;20471;-68
2023/02/01 13:35:50;;;;;;;67.37;4.70;;;;;;;;;;5072336;28;20451;-68
2023/02/01 13:38:29;;;;;;;65.40;4.77;;;;;;;;;;5072234;28;21009;-68
2023/02/01 13:41:03;;;;;;;62.90;4.40;;;;;;;;;;5071965;28;20443;-68
2023/02/01 13:43:32;;;;;;;68.10;4.70;;;;;;;;;;5072412;28;20471;-68
2023/02/01 13:46:06;;;;;;;65.07;5.83;;;;;;;;;;5072198;28;20443;-68
2023/02/01 13:48:37;;;;;;;67.97;5.10;;;;;;;;;;5071932;28;20436;-68
2023/02/01 13:51:04;;;;;;;64.70;4.47;;;;;;;;;;5071923;28;20483;-67
2023/02/01 13:53:33;;;;;;;61.23;4.40;;;;;;;;;;5072057;28;20666;-68
2023/02/01 13:56:03;;;;;;;69.73;4.33;;;;;;;;;;5072219;28;20470;-68
2023/02/01 13:58:34;;;;;;;63.50;4.53;;;;;;;;;;5071749;28;20443;-67
2023/02/01 14:01:20;;;;;;;68.27;4.27;;;;;;;;;;5070393;28;20471;-68
2023/02/01 14:03:48;;;;;;;67.57;4.57;;;;;;;;;;5070803;28;20468;-68
2023/02/01 14:06:36;;;;;;;64.37;4.60;;;;;;;;;;5071095;28;20473;-68
2023/02/01 14:09:27;;;;;;;62.57;4.40;;;;;;;;;;5069889;28;20444;-68
2023/02/01 14:11:57;;;;;;;59.57;4.60;;;;;;;;;;5055305;28;20484;-68
2023/02/01 14:14:45;;;;;;;61.30;4.23;;;;;;;;;;5070974;28;20881;-68
2023/02/01 14:17:36;;;;;;;60.30;4.67;;;;;;;;;;5071730;28;20512;-67
2023/02/01 14:20:22;;;;;;;64.57;4.70;;;;;;;;;;5071254;28;20447;-68
2023/02/01 14:22:50;;;;;;;61.70;4.10;;;;;;;;;;5071753;28;20453;-67
2023/02/01 14:25:18;;;;;;;58.80;3.60;;;;;;;;;;5071682;28;20481;-69
2023/02/01 14:27:48;;;;;;;61.57;4.70;;;;;;;;;;5071636;28;20478;-68
2023/02/01 14:30:17;;;;;;;70.63;4.97;;;;;;;;;;5070793;28;20940;-68
2023/02/01 14:32:46;;;;;;;63.70;4.70;;;;;;;;;;5071653;28;20494;-68
2023/02/01 14:35:19;;;;;;;61.40;4.27;;;;;;;;;;5071539;28;20446;-68
2023/02/01 14:37:47;;;;;;;69.00;4.60;;;;;;;;;;5071570;28;20526;-68
2023/02/01 14:40:17;;;;;;;61.17;4.53;;;;;;;;;;5070746;28;20820;-68
2023/02/01 14:42:45;;;;;;;63.60;4.60;;;;;;;;;;5071424;28;20490;-68
2023/02/01 14:45:31;;;;;;;65.17;4.80;;;;;;;;;;5071621;28;20538;-68
2023/02/01 14:48:23;;;;;;;65.20;4.20;;;;;;;;;;5071553;28;20453;-67
2023/02/01 14:50:51;;;;;;;61.27;4.60;;;;;;;;;;5070581;28;20455;-68
2023/02/01 14:53:23;;;;;;;63.10;4.57;;;;;;;;;;5071371;28;20486;-68
2023/02/01 14:55:51;;;;;;;60.43;3.80;;;;;;;;;;5071604;28;20798;-68
2023/02/01 14:58:21;;;;;;;63.73;4.53;;;;;;;;;;5071419;28;20455;-69
2023/02/01 15:00:49;;;;;;;64.37;4.97;;;;;;;;;;5070702;28;20458;-68
2023/02/01 15:03:32;;;;;;;70.13;5.17;;;;;;;;;;5071213;28;20474;-68
2023/02/01 15:06:00;;;;;;;66.30;4.40;;;;;;;;;;5071501;28;20452;-68
2023/02/01 15:08:30;;;;;;;61.57;4.07;;;;;;;;;;5071064;28;20462;-68
2023/02/01 15:10:59;;;;;;;66.75;4.82;;;;;;;;;;5071007;28;20455;-68
2023/02/01 15:13:27;;;;;;;63.70;4.77;;;;;;;;;;5071095;28;20233;-67
2023/02/01 15:16:04;;;;;;;67.07;5.00;;;;;;;;;;5071019;28;20447;-68